sensor_id;sensor_type;location;lat;lon;timestamp;temperature;humidity
38582;DHT22;24349;53.720;10.014;2023-11-19T00:02:22;5.20;99.90
38582;DHT22;24349;53.720;10.014;2023-11-19T00:04:48;5.30;99.90
38582;DHT22;24349;53.720;10.014;2023-11-19T00:07:13;5.30;99.90
38582;DHT22;24349;53.720;10.014;2023-11-19T00:09:40;5.30;99.90
38582;DHT22;24349;53.720;10.014;2023-11-19T00:12:07;5.30;99.90
38582;DHT22;24349;53.720;10.014;2023-11-19T00:14:33;5.30;99.90
38582;DHT22;24349;53.720;10.014;2023-11-19T00:17:00;5.30;99.90
38582;DHT22;24349;53.720;10.014;2023-11-19T00:19:25;5.30;99.90
38582;DHT22;24349;53.720;10.014;2023-11-19T00:21:52;5.30;99.90
38582;DHT22;24349;53.720;10.014;2023-11-19T00:24:17;5.30;99.90
38582;DHT22;24349;53.720;10.014;2023-11-19T00:26:43;5.30;99.90
38582;DHT22;24349;53.720;10.014;2023-11-19T00:29:09;5.30;99.90
38582;DHT22;24349;53.720;10.014;2023-11-19T00:31:35;5.30;99.90
38582;DHT22;24349;53.720;10.014;2023-11-19T00:34:01;5.30;99.90
38582;DHT22;24349;53.720;10.014;2023-11-19T00:36:27;5.30;99.90
38582;DHT22;24349;53.720;10.014;2023-11-19T00:38:53;5.30;99.90
38582;DHT22;24349;53.720;10.014;2023-11-19T00:41:19;5.30;99.90
38582;DHT22;24349;53.720;10.014;2023-11-19T00:43:45;5.30;99.90
38582;DHT22;24349;53.720;10.014;2023-11-19T00:46:11;5.40;99.90
38582;DHT22;24349;53.720;10.014;2023-11-19T00:48:37;5.30;99.90
38582;DHT22;24349;53.720;10.014;2023-11-19T00:51:03;5.30;99.90
38582;DHT22;24349;53.720;10.014;2023-11-19T00:53:30;5.30;99.90
38582;DHT22;24349;53.720;10.014;2023-11-19T00:55:56;5.40;99.90
38582;DHT22;24349;53.720;10.014;2023-11-19T00:58:22;5.40;99.90
38582;DHT22;24349;53.720;10.014;2023-11-19T01:00:48;5.40;99.90
38582;DHT22;24349;53.720;10.014;2023-11-19T01:03:13;5.40;99.90
38582;DHT22;24349;53.720;10.014;2023-11-19T01:05:41;5.40;99.90
38582;DHT22;24349;53.720;10.014;2023-11-19T01:08:07;5.40;99.90
38582;DHT22;24349;53.720;10.014;2023-11-19T01:10:33;5.40;99.90
38582;DHT22;24349;53.720;10.014;2023-11-19T01:12:59;5.40;99.90
38582;DHT22;24349;53.720;10.014;2023-11-19T01:15:25;5.40;99.90
38582;DHT22;24349;53.720;10.014;2023-11-19T01:17:50;5.50;99.90
38582;DHT22;24349;53.720;10.014;2023-11-19T01:20:16;5.40;99.90
38582;DHT22;24349;53.720;10.014;2023-11-19T01:22:42;5.50;99.90
38582;DHT22;24349;53.720;10.014;2023-11-19T01:25:08;5.50;99.90
38582;DHT22;24349;53.720;10.014;2023-11-19T01:27:34;5.50;99.90
38582;DHT22;24349;53.720;10.014;2023-11-19T01:30:01;5.40;99.90
38582;DHT22;24349;53.720;10.014;2023-11-19T01:32:29;5.50;99.90
38582;DHT22;24349;53.720;10.014;2023-11-19T01:34:54;5.50;99.90
38582;DHT22;24349;53.720;10.014;2023-11-19T01:37:20;5.50;99.90
38582;DHT22;24349;53.720;10.014;2023-11-19T01:39:46;5.50;99.90
38582;DHT22;24349;53.720;10.014;2023-11-19T01:42:11;5.50;99.90
38582;DHT22;24349;53.720;10.014;2023-11-19T01:44:38;5.50;99.90
38582;DHT22;24349;53.720;10.014;2023-11-19T01:47:04;5.50;99.90
38582;DHT22;24349;53.720;10.014;2023-11-19T01:49:31;5.50;99.90
38582;DHT22;24349;53.720;10.014;2023-11-19T01:51:58;5.50;99.90
38582;DHT22;24349;53.720;10.014;2023-11-19T01:54:24;5.50;99.90
38582;DHT22;24349;53.720;10.014;2023-11-19T01:56:51;5.60;99.90
38582;DHT22;24349;53.720;10.014;2023-11-19T01:59:18;5.50;99.90
38582;DHT22;24349;53.720;10.014;2023-11-19T02:01:46;5.50;99.90
38582;DHT22;24349;53.720;10.014;2023-11-19T02:04:12;5.50;99.90
38582;DHT22;24349;53.720;10.014;2023-11-19T02:06:40;5.50;99.90
38582;DHT22;24349;53.720;10.014;2023-11-19T02:09:06;5.50;99.90
38582;DHT22;24349;53.720;10.014;2023-11-19T02:11:34;5.50;99.90
38582;DHT22;24349;53.720;10.014;2023-11-19T02:14:00;5.50;99.90
38582;DHT22;24349;53.720;10.014;2023-11-19T02:16:26;5.50;99.90
38582;DHT22;24349;53.720;10.014;2023-11-19T02:18:51;5.50;99.90
38582;DHT22;24349;53.720;10.014;2023-11-19T02:21:17;5.60;99.90
38582;DHT22;24349;53.720;10.014;2023-11-19T02:23:43;5.50;99.90
38582;DHT22;24349;53.720;10.014;2023-11-19T02:26:21;5.60;99.90
38582;DHT22;24349;53.720;10.014;2023-11-19T02:28:49;5.60;99.90
38582;DHT22;24349;53.720;10.014;2023-11-19T02:31:15;5.60;99.90
38582;DHT22;24349;53.720;10.014;2023-11-19T02:33:40;5.60;99.90
38582;DHT22;24349;53.720;10.014;2023-11-19T02:36:07;5.50;99.90
38582;DHT22;24349;53.720;10.014;2023-11-19T02:38:34;5.50;99.90
38582;DHT22;24349;53.720;10.014;2023-11-19T02:41:02;5.60;99.90
38582;DHT22;24349;53.720;10.014;2023-11-19T02:43:28;5.60;99.90
38582;DHT22;24349;53.720;10.014;2023-11-19T02:45:53;5.60;99.90
38582;DHT22;24349;53.720;10.014;2023-11-19T02:48:21;5.60;99.90
38582;DHT22;24349;53.720;10.014;2023-11-19T02:50:46;5.60;99.90
38582;DHT22;24349;53.720;10.014;2023-11-19T02:53:13;5.60;99.90
38582;DHT22;24349;53.720;10.014;2023-11-19T02:55:39;5.60;99.90
38582;DHT22;24349;53.720;10.014;2023-11-19T02:58:06;5.60;99.90
38582;DHT22;24349;53.720;10.014;2023-11-19T03:00:45;5.60;99.90
38582;DHT22;24349;53.720;10.014;2023-11-19T03:03:19;5.70;99.90
38582;DHT22;24349;53.720;10.014;2023-11-19T03:05:51;5.70;99.90
38582;DHT22;24349;53.720;10.014;2023-11-19T03:08:17;5.60;99.90
38582;DHT22;24349;53.720;10.014;2023-11-19T03:10:43;5.70;99.90
38582;DHT22;24349;53.720;10.014;2023-11-19T03:13:13;5.60;99.90
38582;DHT22;24349;53.720;10.014;2023-11-19T03:15:45;5.70;99.90
38582;DHT22;24349;53.720;10.014;2023-11-19T03:18:11;5.70;99.90
38582;DHT22;24349;53.720;10.014;2023-11-19T03:20:36;5.70;99.90
38582;DHT22;24349;53.720;10.014;2023-11-19T03:23:02;5.70;99.90
38582;DHT22;24349;53.720;10.014;2023-11-19T03:25:28;5.70;99.90
38582;DHT22;24349;53.720;10.014;2023-11-19T03:28:02;5.70;99.90
38582;DHT22;24349;53.720;10.014;2023-11-19T03:30:29;5.70;99.90
38582;DHT22;24349;53.720;10.014;2023-11-19T03:32:56;5.80;99.90
38582;DHT22;24349;53.720;10.014;2023-11-19T03:35:22;5.80;99.90
38582;DHT22;24349;53.720;10.014;2023-11-19T03:37:48;5.80;99.90
38582;DHT22;24349;53.720;10.014;2023-11-19T03:40:14;5.80;99.90
38582;DHT22;24349;53.720;10.014;2023-11-19T03:42:40;5.90;99.90
38582;DHT22;24349;53.720;10.014;2023-11-19T03:45:06;5.90;99.90
38582;DHT22;24349;53.720;10.014;2023-11-19T03:47:34;5.90;99.90
38582;DHT22;24349;53.720;10.014;2023-11-19T03:50:00;6.00;99.90
38582;DHT22;24349;53.720;10.014;2023-11-19T03:52:26;6.00;99.90
38582;DHT22;24349;53.720;10.014;2023-11-19T03:54:52;6.10;99.90
38582;DHT22;24349;53.720;10.014;2023-11-19T03:57:20;6.10;99.90
38582;DHT22;24349;53.720;10.014;2023-11-19T03:59:46;6.10;99.90
38582;DHT22;24349;53.720;10.014;2023-11-19T04:02:12;6.20;99.90
38582;DHT22;24349;53.720;10.014;2023-11-19T04:04:37;6.20;99.90
38582;DHT22;24349;53.720;10.014;2023-11-19T04:07:06;6.20;99.90
38582;DHT22;24349;53.720;10.014;2023-11-19T04:09:32;6.20;99.90
38582;DHT22;24349;53.720;10.014;2023-11-19T04:12:01;6.20;99.90
38582;DHT22;24349;53.720;10.014;2023-11-19T04:14:27;6.30;99.90
38582;DHT22;24349;53.720;10.014;2023-11-19T04:16:53;6.20;99.90
38582;DHT22;24349;53.720;10.014;2023-11-19T04:19:19;6.20;99.90
38582;DHT22;24349;53.720;10.014;2023-11-19T04:21:45;6.30;99.90
38582;DHT22;24349;53.720;10.014;2023-11-19T04:24:11;6.30;99.90
38582;DHT22;24349;53.720;10.014;2023-11-19T04:26:41;6.30;99.90
38582;DHT22;24349;53.720;10.014;2023-11-19T04:29:09;6.40;99.90
38582;DHT22;24349;53.720;10.014;2023-11-19T04:31:36;6.40;99.90
38582;DHT22;24349;53.720;10.014;2023-11-19T04:34:02;6.40;99.90
38582;DHT22;24349;53.720;10.014;2023-11-19T04:36:27;6.50;99.90
38582;DHT22;24349;53.720;10.014;2023-11-19T04:38:55;6.50;99.90
38582;DHT22;24349;53.720;10.014;2023-11-19T04:41:21;6.50;99.90
38582;DHT22;24349;53.720;10.014;2023-11-19T04:43:46;6.60;99.90
38582;DHT22;24349;53.720;10.014;2023-11-19T04:46:12;6.60;99.90
38582;DHT22;24349;53.720;10.014;2023-11-19T04:48:38;6.60;99.90
38582;DHT22;24349;53.720;10.014;2023-11-19T04:51:07;6.50;99.90
38582;DHT22;24349;53.720;10.014;2023-11-19T04:53:34;6.60;99.90
38582;DHT22;24349;53.720;10.014;2023-11-19T04:56:00;6.70;99.90
38582;DHT22;24349;53.720;10.014;2023-11-19T04:58:26;6.70;99.90
38582;DHT22;24349;53.720;10.014;2023-11-19T05:00:54;6.70;99.90
38582;DHT22;24349;53.720;10.014;2023-11-19T05:03:19;6.70;99.90
38582;DHT22;24349;53.720;10.014;2023-11-19T05:05:45;6.80;99.90
38582;DHT22;24349;53.720;10.014;2023-11-19T05:08:10;6.80;99.90
38582;DHT22;24349;53.720;10.014;2023-11-19T05:10:37;6.90;99.90
38582;DHT22;24349;53.720;10.014;2023-11-19T05:13:02;6.90;99.90
38582;DHT22;24349;53.720;10.014;2023-11-19T05:15:28;6.90;99.90
38582;DHT22;24349;53.720;10.014;2023-11-19T05:17:53;7.00;99.90
38582;DHT22;24349;53.720;10.014;2023-11-19T05:20:19;7.00;99.90
38582;DHT22;24349;53.720;10.014;2023-11-19T05:22:45;7.10;99.90
38582;DHT22;24349;53.720;10.014;2023-11-19T05:25:11;7.10;99.90
38582;DHT22;24349;53.720;10.014;2023-11-19T05:27:37;7.20;99.90
38582;DHT22;24349;53.720;10.014;2023-11-19T05:30:05;7.20;99.90
38582;DHT22;24349;53.720;10.014;2023-11-19T05:32:33;7.10;99.90
38582;DHT22;24349;53.720;10.014;2023-11-19T05:34:58;7.20;99.90
38582;DHT22;24349;53.720;10.014;2023-11-19T05:37:24;7.40;99.90
38582;DHT22;24349;53.720;10.014;2023-11-19T05:39:50;7.50;99.90
38582;DHT22;24349;53.720;10.014;2023-11-19T05:42:16;7.40;99.90
38582;DHT22;24349;53.720;10.014;2023-11-19T05:44:42;7.40;99.90
38582;DHT22;24349;53.720;10.014;2023-11-19T05:47:08;7.40;99.90
38582;DHT22;24349;53.720;10.014;2023-11-19T05:49:33;7.50;99.90
38582;DHT22;24349;53.720;10.014;2023-11-19T05:51:59;7.50;99.90
38582;DHT22;24349;53.720;10.014;2023-11-19T05:54:24;7.60;99.90
38582;DHT22;24349;53.720;10.014;2023-11-19T05:56:51;7.70;99.90
38582;DHT22;24349;53.720;10.014;2023-11-19T05:59:19;7.70;99.90
38582;DHT22;24349;53.720;10.014;2023-11-19T06:01:45;7.80;99.90
38582;DHT22;24349;53.720;10.014;2023-11-19T06:04:11;7.80;99.90
38582;DHT22;24349;53.720;10.014;2023-11-19T06:06:36;7.90;99.90
38582;DHT22;24349;53.720;10.014;2023-11-19T06:09:03;7.90;99.90
38582;DHT22;24349;53.720;10.014;2023-11-19T06:11:29;8.00;99.90
38582;DHT22;24349;53.720;10.014;2023-11-19T06:13:54;8.00;99.90
38582;DHT22;24349;53.720;10.014;2023-11-19T06:16:20;8.10;99.90
38582;DHT22;24349;53.720;10.014;2023-11-19T06:18:46;8.10;99.90
38582;DHT22;24349;53.720;10.014;2023-11-19T06:21:12;8.30;99.90
38582;DHT22;24349;53.720;10.014;2023-11-19T06:23:37;8.30;99.90
38582;DHT22;24349;53.720;10.014;2023-11-19T06:26:03;8.50;99.90
38582;DHT22;24349;53.720;10.014;2023-11-19T06:28:30;8.60;99.90
38582;DHT22;24349;53.720;10.014;2023-11-19T06:30:56;8.80;99.90
38582;DHT22;24349;53.720;10.014;2023-11-19T06:33:26;9.00;99.90
38582;DHT22;24349;53.720;10.014;2023-11-19T06:35:52;9.20;99.90
38582;DHT22;24349;53.720;10.014;2023-11-19T06:38:18;9.30;99.90
38582;DHT22;24349;53.720;10.014;2023-11-19T06:40:44;9.50;99.90
38582;DHT22;24349;53.720;10.014;2023-11-19T06:43:09;9.60;99.90
38582;DHT22;24349;53.720;10.014;2023-11-19T06:45:35;9.70;99.90
38582;DHT22;24349;53.720;10.014;2023-11-19T06:48:02;9.90;99.90
38582;DHT22;24349;53.720;10.014;2023-11-19T06:50:34;10.00;99.90
38582;DHT22;24349;53.720;10.014;2023-11-19T06:52:59;10.10;99.90
38582;DHT22;24349;53.720;10.014;2023-11-19T06:55:26;10.10;99.90
38582;DHT22;24349;53.720;10.014;2023-11-19T06:57:51;10.20;99.90
38582;DHT22;24349;53.720;10.014;2023-11-19T07:00:17;10.30;99.90
38582;DHT22;24349;53.720;10.014;2023-11-19T07:02:44;10.30;99.90
38582;DHT22;24349;53.720;10.014;2023-11-19T07:05:10;10.30;99.90
38582;DHT22;24349;53.720;10.014;2023-11-19T07:07:37;10.40;99.90
38582;DHT22;24349;53.720;10.014;2023-11-19T07:10:03;10.50;99.90
38582;DHT22;24349;53.720;10.014;2023-11-19T07:12:30;10.60;99.90
38582;DHT22;24349;53.720;10.014;2023-11-19T07:14:55;10.70;99.90
38582;DHT22;24349;53.720;10.014;2023-11-19T07:17:21;10.70;99.90
38582;DHT22;24349;53.720;10.014;2023-11-19T07:19:49;10.80;99.90
38582;DHT22;24349;53.720;10.014;2023-11-19T07:22:15;10.90;99.90
38582;DHT22;24349;53.720;10.014;2023-11-19T07:24:41;10.90;99.90
38582;DHT22;24349;53.720;10.014;2023-11-19T07:27:07;10.90;99.90
38582;DHT22;24349;53.720;10.014;2023-11-19T07:29:34;11.00;99.90
38582;DHT22;24349;53.720;10.014;2023-11-19T07:32:00;11.10;99.90
38582;DHT22;24349;53.720;10.014;2023-11-19T07:34:27;11.10;99.90
38582;DHT22;24349;53.720;10.014;2023-11-19T07:36:53;11.10;99.90
38582;DHT22;24349;53.720;10.014;2023-11-19T07:39:19;11.10;99.90
38582;DHT22;24349;53.720;10.014;2023-11-19T07:41:46;11.20;99.90
38582;DHT22;24349;53.720;10.014;2023-11-19T07:44:12;11.20;99.90
38582;DHT22;24349;53.720;10.014;2023-11-19T07:46:37;11.20;99.90
38582;DHT22;24349;53.720;10.014;2023-11-19T07:49:03;11.30;99.90
38582;DHT22;24349;53.720;10.014;2023-11-19T07:51:28;11.20;99.90
38582;DHT22;24349;53.720;10.014;2023-11-19T07:53:54;11.40;99.90
38582;DHT22;24349;53.720;10.014;2023-11-19T07:56:19;11.50;99.90
38582;DHT22;24349;53.720;10.014;2023-11-19T07:58:45;11.50;99.90
38582;DHT22;24349;53.720;10.014;2023-11-19T08:01:11;11.60;99.90
38582;DHT22;24349;53.720;10.014;2023-11-19T08:03:37;11.60;99.90
38582;DHT22;24349;53.720;10.014;2023-11-19T08:06:04;11.60;99.90
38582;DHT22;24349;53.720;10.014;2023-11-19T08:08:29;11.70;99.90
38582;DHT22;24349;53.720;10.014;2023-11-19T08:10:56;11.70;99.90
38582;DHT22;24349;53.720;10.014;2023-11-19T08:13:23;11.70;99.90
38582;DHT22;24349;53.720;10.014;2023-11-19T08:15:49;11.60;99.90
38582;DHT22;24349;53.720;10.014;2023-11-19T08:18:14;11.60;99.90
38582;DHT22;24349;53.720;10.014;2023-11-19T08:20:40;11.50;99.90
38582;DHT22;24349;53.720;10.014;2023-11-19T08:23:07;11.50;99.90
38582;DHT22;24349;53.720;10.014;2023-11-19T08:25:33;11.60;99.90
38582;DHT22;24349;53.720;10.014;2023-11-19T08:28:01;11.60;99.90
38582;DHT22;24349;53.720;10.014;2023-11-19T08:30:29;11.60;99.90
38582;DHT22;24349;53.720;10.014;2023-11-19T08:32:55;11.50;99.90
38582;DHT22;24349;53.720;10.014;2023-11-19T08:35:20;11.60;99.90
38582;DHT22;24349;53.720;10.014;2023-11-19T08:37:46;11.50;99.90
38582;DHT22;24349;53.720;10.014;2023-11-19T08:40:13;11.50;99.90
38582;DHT22;24349;53.720;10.014;2023-11-19T08:42:40;11.60;99.90
38582;DHT22;24349;53.720;10.014;2023-11-19T08:45:06;11.60;99.90
38582;DHT22;24349;53.720;10.014;2023-11-19T08:47:31;11.60;99.90
38582;DHT22;24349;53.720;10.014;2023-11-19T08:49:57;11.60;99.90
38582;DHT22;24349;53.720;10.014;2023-11-19T08:52:23;11.60;99.90
38582;DHT22;24349;53.720;10.014;2023-11-19T08:54:49;11.60;99.90
38582;DHT22;24349;53.720;10.014;2023-11-19T08:57:17;11.60;99.90
38582;DHT22;24349;53.720;10.014;2023-11-19T08:59:43;11.60;99.90
38582;DHT22;24349;53.720;10.014;2023-11-19T09:02:09;11.60;99.90
38582;DHT22;24349;53.720;10.014;2023-11-19T09:04:34;11.60;99.90
38582;DHT22;24349;53.720;10.014;2023-11-19T09:07:01;11.70;99.90
38582;DHT22;24349;53.720;10.014;2023-11-19T09:09:27;11.80;99.90
38582;DHT22;24349;53.720;10.014;2023-11-19T09:11:52;11.80;99.90
38582;DHT22;24349;53.720;10.014;2023-11-19T09:14:18;11.70;99.90
38582;DHT22;24349;53.720;10.014;2023-11-19T09:16:44;11.80;99.90
38582;DHT22;24349;53.720;10.014;2023-11-19T09:19:09;11.90;99.90
38582;DHT22;24349;53.720;10.014;2023-11-19T09:21:35;11.90;99.90
38582;DHT22;24349;53.720;10.014;2023-11-19T09:24:04;11.90;99.90
38582;DHT22;24349;53.720;10.014;2023-11-19T09:26:30;11.90;99.90
38582;DHT22;24349;53.720;10.014;2023-11-19T09:28:56;11.90;99.90
38582;DHT22;24349;53.720;10.014;2023-11-19T09:31:21;11.90;99.90
38582;DHT22;24349;53.720;10.014;2023-11-19T09:33:47;11.80;99.90
38582;DHT22;24349;53.720;10.014;2023-11-19T09:36:13;11.80;99.90
38582;DHT22;24349;53.720;10.014;2023-11-19T09:38:43;11.90;99.90
38582;DHT22;24349;53.720;10.014;2023-11-19T09:41:10;11.90;99.90
38582;DHT22;24349;53.720;10.014;2023-11-19T09:43:39;11.80;99.90
38582;DHT22;24349;53.720;10.014;2023-11-19T09:46:06;11.80;99.90
38582;DHT22;24349;53.720;10.014;2023-11-19T09:48:35;11.80;99.90
38582;DHT22;24349;53.720;10.014;2023-11-19T09:51:02;11.90;99.90
38582;DHT22;24349;53.720;10.014;2023-11-19T09:53:30;11.80;99.90
38582;DHT22;24349;53.720;10.014;2023-11-19T09:55:56;11.90;99.90
38582;DHT22;24349;53.720;10.014;2023-11-19T09:58:22;11.90;99.90
38582;DHT22;24349;53.720;10.014;2023-11-19T10:00:49;11.80;99.90
38582;DHT22;24349;53.720;10.014;2023-11-19T10:03:15;12.00;99.90
38582;DHT22;24349;53.720;10.014;2023-11-19T10:05:41;12.10;99.90
38582;DHT22;24349;53.720;10.014;2023-11-19T10:08:07;12.00;99.90
38582;DHT22;24349;53.720;10.014;2023-11-19T10:10:33;12.00;99.90
38582;DHT22;24349;53.720;10.014;2023-11-19T10:13:00;12.10;99.90
38582;DHT22;24349;53.720;10.014;2023-11-19T10:15:26;12.10;99.90
38582;DHT22;24349;53.720;10.014;2023-11-19T10:17:58;12.20;99.90
38582;DHT22;24349;53.720;10.014;2023-11-19T10:20:24;12.10;99.90
38582;DHT22;24349;53.720;10.014;2023-11-19T10:22:55;12.10;99.90
38582;DHT22;24349;53.720;10.014;2023-11-19T10:25:28;12.10;99.90
38582;DHT22;24349;53.720;10.014;2023-11-19T10:27:55;12.10;99.90
38582;DHT22;24349;53.720;10.014;2023-11-19T10:30:26;12.10;99.90
38582;DHT22;24349;53.720;10.014;2023-11-19T10:33:13;12.20;99.90
38582;DHT22;24349;53.720;10.014;2023-11-19T10:35:56;12.30;99.90
38582;DHT22;24349;53.720;10.014;2023-11-19T10:38:25;12.10;99.90
38582;DHT22;24349;53.720;10.014;2023-11-19T10:40:52;12.10;99.90
38582;DHT22;24349;53.720;10.014;2023-11-19T10:43:19;12.30;99.90
38582;DHT22;24349;53.720;10.014;2023-11-19T10:45:45;12.30;99.90
38582;DHT22;24349;53.720;10.014;2023-11-19T10:48:11;12.50;99.90
38582;DHT22;24349;53.720;10.014;2023-11-19T10:50:39;12.40;99.90
38582;DHT22;24349;53.720;10.014;2023-11-19T10:53:07;12.50;99.90
38582;DHT22;24349;53.720;10.014;2023-11-19T10:55:35;12.10;99.90
38582;DHT22;24349;53.720;10.014;2023-11-19T10:58:02;11.90;99.90
38582;DHT22;24349;53.720;10.014;2023-11-19T11:00:29;11.80;99.90
38582;DHT22;24349;53.720;10.014;2023-11-19T11:03:02;11.80;99.90
38582;DHT22;24349;53.720;10.014;2023-11-19T11:05:34;11.70;99.90
38582;DHT22;24349;53.720;10.014;2023-11-19T11:08:00;11.90;99.90
38582;DHT22;24349;53.720;10.014;2023-11-19T11:10:28;11.80;99.90
38582;DHT22;24349;53.720;10.014;2023-11-19T11:12:59;11.90;99.90
38582;DHT22;24349;53.720;10.014;2023-11-19T11:15:29;11.90;99.90
38582;DHT22;24349;53.720;10.014;2023-11-19T11:18:01;12.00;99.90
38582;DHT22;24349;53.720;10.014;2023-11-19T11:20:36;12.10;99.90
38582;DHT22;24349;53.720;10.014;2023-11-19T11:34:02;12.10;99.90
38582;DHT22;24349;53.720;10.014;2023-11-19T11:37:03;12.20;99.90
38582;DHT22;24349;53.720;10.014;2023-11-19T11:39:24;12.40;99.90
38582;DHT22;24349;53.720;10.014;2023-11-19T11:47:26;12.50;99.90
38582;DHT22;24349;53.720;10.014;2023-11-19T11:49:52;12.30;99.90
38582;DHT22;24349;53.720;10.014;2023-11-19T11:52:19;12.30;99.90
38582;DHT22;24349;53.720;10.014;2023-11-19T11:54:45;12.20;99.90
38582;DHT22;24349;53.720;10.014;2023-11-19T11:57:12;12.20;99.90
38582;DHT22;24349;53.720;10.014;2023-11-19T12:02:11;12.10;99.90
38582;DHT22;24349;53.720;10.014;2023-11-19T12:04:39;12.10;99.90
38582;DHT22;24349;53.720;10.014;2023-11-19T12:07:06;12.00;99.90
38582;DHT22;24349;53.720;10.014;2023-11-19T12:09:33;12.00;99.90
38582;DHT22;24349;53.720;10.014;2023-11-19T12:12:18;12.00;99.90
38582;DHT22;24349;53.720;10.014;2023-11-19T12:20:05;11.90;99.90
38582;DHT22;24349;53.720;10.014;2023-11-19T12:22:35;12.00;99.90
38582;DHT22;24349;53.720;10.014;2023-11-19T12:25:02;11.90;99.90
38582;DHT22;24349;53.720;10.014;2023-11-19T12:27:29;11.90;99.90
38582;DHT22;24349;53.720;10.014;2023-11-19T12:29:55;11.80;99.90
38582;DHT22;24349;53.720;10.014;2023-11-19T12:32:22;11.90;99.90
38582;DHT22;24349;53.720;10.014;2023-11-19T12:34:48;12.00;99.90
38582;DHT22;24349;53.720;10.014;2023-11-19T12:37:14;12.00;99.90
38582;DHT22;24349;53.720;10.014;2023-11-19T12:39:40;11.90;99.90
38582;DHT22;24349;53.720;10.014;2023-11-19T12:42:06;12.00;99.90
38582;DHT22;24349;53.720;10.014;2023-11-19T12:44:32;12.00;99.90
38582;DHT22;24349;53.720;10.014;2023-11-19T12:47:08;12.10;99.90
38582;DHT22;24349;53.720;10.014;2023-11-19T12:49:36;12.20;99.90
38582;DHT22;24349;53.720;10.014;2023-11-19T12:52:11;12.20;99.90
38582;DHT22;24349;53.720;10.014;2023-11-19T12:54:38;12.30;99.90
38582;DHT22;24349;53.720;10.014;2023-11-19T12:57:04;12.40;99.90
38582;DHT22;24349;53.720;10.014;2023-11-19T12:59:31;12.50;99.90
38582;DHT22;24349;53.720;10.014;2023-11-19T13:01:57;12.50;99.90
38582;DHT22;24349;53.720;10.014;2023-11-19T13:04:27;12.40;99.90
38582;DHT22;24349;53.720;10.014;2023-11-19T13:06:53;12.50;99.90
38582;DHT22;24349;53.720;10.014;2023-11-19T13:09:23;12.60;99.90
38582;DHT22;24349;53.720;10.014;2023-11-19T13:11:50;12.50;99.90
38582;DHT22;24349;53.720;10.014;2023-11-19T13:14:16;12.50;99.90
38582;DHT22;24349;53.720;10.014;2023-11-19T13:16:42;12.40;99.90
38582;DHT22;24349;53.720;10.014;2023-11-19T13:19:08;12.40;99.90
38582;DHT22;24349;53.720;10.014;2023-11-19T13:21:36;12.50;99.90
38582;DHT22;24349;53.720;10.014;2023-11-19T13:24:03;12.50;99.90
38582;DHT22;24349;53.720;10.014;2023-11-19T13:26:29;12.80;99.90
38582;DHT22;24349;53.720;10.014;2023-11-19T13:28:54;12.80;97.10
38582;DHT22;24349;53.720;10.014;2023-11-19T13:31:20;12.50;99.90
38582;DHT22;24349;53.720;10.014;2023-11-19T13:33:46;12.40;99.90
38582;DHT22;24349;53.720;10.014;2023-11-19T13:36:12;12.30;99.90
38582;DHT22;24349;53.720;10.014;2023-11-19T13:38:38;12.20;99.90
38582;DHT22;24349;53.720;10.014;2023-11-19T13:41:06;12.30;99.90
38582;DHT22;24349;53.720;10.014;2023-11-19T13:43:33;12.20;99.90
38582;DHT22;24349;53.720;10.014;2023-11-19T13:45:58;12.20;99.90
38582;DHT22;24349;53.720;10.014;2023-11-19T13:48:24;12.20;99.90
38582;DHT22;24349;53.720;10.014;2023-11-19T13:50:52;12.10;99.90
38582;DHT22;24349;53.720;10.014;2023-11-19T13:53:17;12.10;99.90
38582;DHT22;24349;53.720;10.014;2023-11-19T13:55:43;12.10;99.90
38582;DHT22;24349;53.720;10.014;2023-11-19T13:58:09;12.10;99.90
38582;DHT22;24349;53.720;10.014;2023-11-19T14:00:36;12.00;99.90
38582;DHT22;24349;53.720;10.014;2023-11-19T14:03:02;11.90;99.90
38582;DHT22;24349;53.720;10.014;2023-11-19T14:05:28;12.00;99.90
38582;DHT22;24349;53.720;10.014;2023-11-19T14:07:53;11.90;99.90
38582;DHT22;24349;53.720;10.014;2023-11-19T14:10:22;11.90;99.90
38582;DHT22;24349;53.720;10.014;2023-11-19T14:12:47;11.90;99.90
38582;DHT22;24349;53.720;10.014;2023-11-19T14:15:13;11.80;99.90
38582;DHT22;24349;53.720;10.014;2023-11-19T14:17:39;11.90;99.90
38582;DHT22;24349;53.720;10.014;2023-11-19T14:20:05;11.90;99.90
38582;DHT22;24349;53.720;10.014;2023-11-19T14:22:43;11.70;99.90
38582;DHT22;24349;53.720;10.014;2023-11-19T14:25:10;11.60;99.90
38582;DHT22;24349;53.720;10.014;2023-11-19T14:27:39;11.50;99.90
38582;DHT22;24349;53.720;10.014;2023-11-19T14:30:06;11.40;99.90
38582;DHT22;24349;53.720;10.014;2023-11-19T14:32:32;11.40;99.90
38582;DHT22;24349;53.720;10.014;2023-11-19T14:34:58;11.50;99.90
38582;DHT22;24349;53.720;10.014;2023-11-19T14:37:24;11.40;99.90
38582;DHT22;24349;53.720;10.014;2023-11-19T14:39:49;11.30;99.90
38582;DHT22;24349;53.720;10.014;2023-11-19T14:42:18;11.20;99.90
38582;DHT22;24349;53.720;10.014;2023-11-19T14:44:43;11.20;99.90
38582;DHT22;24349;53.720;10.014;2023-11-19T14:47:09;11.10;99.90
38582;DHT22;24349;53.720;10.014;2023-11-19T14:49:35;11.10;99.90
38582;DHT22;24349;53.720;10.014;2023-11-19T14:52:03;11.00;99.90
38582;DHT22;24349;53.720;10.014;2023-11-19T14:54:29;10.90;99.90
38582;DHT22;24349;53.720;10.014;2023-11-19T14:56:54;10.70;99.90
38582;DHT22;24349;53.720;10.014;2023-11-19T14:59:20;10.60;99.90
38582;DHT22;24349;53.720;10.014;2023-11-19T15:01:46;10.40;99.90
38582;DHT22;24349;53.720;10.014;2023-11-19T15:04:12;10.40;99.90
38582;DHT22;24349;53.720;10.014;2023-11-19T15:06:37;10.30;99.90
38582;DHT22;24349;53.720;10.014;2023-11-19T15:09:04;10.30;99.90
38582;DHT22;24349;53.720;10.014;2023-11-19T15:11:29;10.10;99.90
38582;DHT22;24349;53.720;10.014;2023-11-19T15:13:55;10.00;99.90
38582;DHT22;24349;53.720;10.014;2023-11-19T15:16:21;10.00;99.90
38582;DHT22;24349;53.720;10.014;2023-11-19T15:18:57;10.00;99.90
38582;DHT22;24349;53.720;10.014;2023-11-19T15:21:27;9.90;99.90
38582;DHT22;24349;53.720;10.014;2023-11-19T15:23:57;9.90;99.90
38582;DHT22;24349;53.720;10.014;2023-11-19T15:26:22;9.80;99.90
38582;DHT22;24349;53.720;10.014;2023-11-19T15:28:48;9.80;99.90
38582;DHT22;24349;53.720;10.014;2023-11-19T15:31:14;9.80;99.90
38582;DHT22;24349;53.720;10.014;2023-11-19T15:33:42;9.80;99.90
38582;DHT22;24349;53.720;10.014;2023-11-19T15:36:08;9.80;99.90
38582;DHT22;24349;53.720;10.014;2023-11-19T15:38:34;9.80;99.90
38582;DHT22;24349;53.720;10.014;2023-11-19T15:41:00;9.80;99.90
38582;DHT22;24349;53.720;10.014;2023-11-19T15:43:25;9.70;99.90
38582;DHT22;24349;53.720;10.014;2023-11-19T15:45:51;9.70;99.90